Detall de PIREP

Printer-friendly versionPDF version

[2016/01/10 07:48:00]
Flight IATA:CT2104
Pilot Number:041
Company ICAO:CAT
Aircraft Type:BE20/A
PAX:4
Departing Airport: LEVC
Destination Airport: LEBB
Alternate Airport:LEBL
Online: VATSIM
Route:CENTA A33 CJN R10 PPN G23 CEGAM
Flight Level:FL230
No Slew and time accel
No pause
Crash detect
Detect pilot in Cockpit between each 30 and 45 minutes
07:48 Zero fuel Weight: 8737 Lbs, Fuel Weight: 3677 Lbs
07:48 VATSIM:LEVC 100730Z 23016G26KT 200V270 9999 FEW025 SCT045 16/07 Q1011 NOSIG
07:48 VATSIM:LEBB 100730Z 14003KT 090V170 9999 FEW055 12/09 Q1000 TEMPO RA
07:48 VOICE CATALONIAN
07:55 Parking Brakes off
08:02 Take-off
08:02 Take off Weight: 12375 Lbs
08:02 Wind: 236º @ 015 Knots Heading: 294º
08:02 POS N39º 29´ 21´´ W000º 28´ 53´´
08:02 Gear Up: 137 Knots
08:02 Flaps:1 at 137 Knots
08:02 Flaps:0 at 143 Knots
08:17 Wind:309º@017 Knots Heading: 299º Ground Speed: 192 Knots Altitude 15400 ft
08:26 TOC
08:26 Fuel Weight: 3339 Lb
08:32 Wind:325º@019 Knots Heading: 300º Ground Speed: 234 Knots Altitude 22847 ft
08:35 TOD
08:35 Fuel Weight: 3256 Lb
08:47 Wind:325º@019 Knots Heading: 353º Ground Speed: 242 Knots Altitude 21840 ft
09:02 Wind:302º@030 Knots Heading: 020º Ground Speed: 251 Knots Altitude 21706 ft
09:17 Wind:240º@005 Knots Heading: 297º Ground Speed: 222 Knots Altitude 6876 ft
09:26 Flaps:1 at 191 Knots
09:26 Gear Down: 188 Knots
09:26 Flaps:2 at 162 Knots
09:29 TouchDown:Rate -63 ft/min Speed: 104 Knots
09:29 Flaps:1 at 93 Knots
09:29 Flaps:0 at 77 Knots
09:29 VATSIM:LEBB 100900Z 24013KT 200V280 9999 FEW040 15/07 Q1001 TEMPO RA
09:29 Land
09:29 Wind:082º@004 Knots
09:29 Heading: 296º
09:29 Flight Duration: 01:27
09:29 Landing Weight: 11541 Lbs
09:29 POS N43º 18´ 06´´ W002º 54´ 44´´
09:35 Parking brakes on
09:35 Block to Block Duration: 01:40
09:35 Final Fuel: 2786 Lbls
09:35 Spent Fuel: 890 Lbls
09:35 Flight Length: 322 NM
09:35 TOD Land Length: 211 NM

Exportar CSV

Powered by Drupal - Modified by Danger4k